sensor_id;sensor_type;location;lat;lon;timestamp;P1;durP1;ratioP1;P2;durP2;ratioP2
30605;SDS011;17371;51.328;3.860;2023-02-15T00:01:04;101.80;;;42.17;;
30605;SDS011;17371;51.328;3.860;2023-02-15T00:03:32;95.03;;;38.17;;
30605;SDS011;17371;51.328;3.860;2023-02-15T00:05:57;119.68;;;41.30;;
30605;SDS011;17371;51.328;3.860;2023-02-15T00:08:23;85.87;;;39.53;;
30605;SDS011;17371;51.328;3.860;2023-02-15T00:10:48;106.90;;;39.17;;
30605;SDS011;17371;51.328;3.860;2023-02-15T00:13:14;95.23;;;38.27;;
30605;SDS011;17371;51.328;3.860;2023-02-15T00:15:39;90.47;;;41.57;;
30605;SDS011;17371;51.328;3.860;2023-02-15T00:18:05;95.32;;;38.40;;
30605;SDS011;17371;51.328;3.860;2023-02-15T00:20:31;96.63;;;41.00;;
30605;SDS011;17371;51.328;3.860;2023-02-15T00:22:57;96.00;;;39.13;;
30605;SDS011;17371;51.328;3.860;2023-02-15T00:25:23;96.03;;;39.57;;
30605;SDS011;17371;51.328;3.860;2023-02-15T00:27:48;160.93;;;43.00;;
30605;SDS011;17371;51.328;3.860;2023-02-15T00:30:14;102.73;;;40.63;;
30605;SDS011;17371;51.328;3.860;2023-02-15T00:32:39;89.40;;;37.00;;
30605;SDS011;17371;51.328;3.860;2023-02-15T00:35:05;89.77;;;38.17;;
30605;SDS011;17371;51.328;3.860;2023-02-15T00:37:32;88.95;;;36.67;;
30605;SDS011;17371;51.328;3.860;2023-02-15T00:39:57;84.22;;;36.35;;
30605;SDS011;17371;51.328;3.860;2023-02-15T00:42:22;103.37;;;35.73;;
30605;SDS011;17371;51.328;3.860;2023-02-15T00:44:48;83.40;;;34.43;;
30605;SDS011;17371;51.328;3.860;2023-02-15T00:47:13;87.50;;;34.97;;
30605;SDS011;17371;51.328;3.860;2023-02-15T00:49:39;105.03;;;33.03;;
30605;SDS011;17371;51.328;3.860;2023-02-15T00:52:04;103.43;;;32.50;;
30605;SDS011;17371;51.328;3.860;2023-02-15T00:54:31;97.40;;;32.60;;
30605;SDS011;17371;51.328;3.860;2023-02-15T00:56:56;76.37;;;31.67;;
30605;SDS011;17371;51.328;3.860;2023-02-15T00:59:21;68.03;;;29.42;;
30605;SDS011;17371;51.328;3.860;2023-02-15T01:01:47;62.17;;;29.52;;
30605;SDS011;17371;51.328;3.860;2023-02-15T01:04:12;53.17;;;26.33;;
30605;SDS011;17371;51.328;3.860;2023-02-15T01:06:37;47.10;;;25.20;;
30605;SDS011;17371;51.328;3.860;2023-02-15T01:09:03;48.50;;;25.47;;
30605;SDS011;17371;51.328;3.860;2023-02-15T01:11:30;103.00;;;29.17;;
30605;SDS011;17371;51.328;3.860;2023-02-15T01:13:56;173.55;;;31.45;;
30605;SDS011;17371;51.328;3.860;2023-02-15T01:16:22;182.68;;;31.42;;
30605;SDS011;17371;51.328;3.860;2023-02-15T01:18:48;118.57;;;27.30;;
30605;SDS011;17371;51.328;3.860;2023-02-15T01:21:14;80.17;;;27.43;;
30605;SDS011;17371;51.328;3.860;2023-02-15T01:23:41;233.43;;;33.65;;
30605;SDS011;17371;51.328;3.860;2023-02-15T01:26:06;138.37;;;27.93;;
30605;SDS011;17371;51.328;3.860;2023-02-15T01:28:33;92.05;;;27.48;;
30605;SDS011;17371;51.328;3.860;2023-02-15T01:30:59;76.90;;;24.83;;
30605;SDS011;17371;51.328;3.860;2023-02-15T01:33:29;70.47;;;25.13;;
30605;SDS011;17371;51.328;3.860;2023-02-15T01:35:58;112.20;;;29.30;;
30605;SDS011;17371;51.328;3.860;2023-02-15T01:38:23;71.40;;;25.67;;
30605;SDS011;17371;51.328;3.860;2023-02-15T01:40:50;97.13;;;27.17;;
30605;SDS011;17371;51.328;3.860;2023-02-15T01:43:15;81.68;;;26.60;;
30605;SDS011;17371;51.328;3.860;2023-02-15T01:45:42;89.97;;;25.87;;
30605;SDS011;17371;51.328;3.860;2023-02-15T01:48:11;98.13;;;28.13;;
30605;SDS011;17371;51.328;3.860;2023-02-15T01:50:42;79.93;;;25.48;;
30605;SDS011;17371;51.328;3.860;2023-02-15T01:53:12;81.43;;;25.17;;
30605;SDS011;17371;51.328;3.860;2023-02-15T01:55:39;52.60;;;23.95;;
30605;SDS011;17371;51.328;3.860;2023-02-15T01:58:07;44.37;;;23.87;;
30605;SDS011;17371;51.328;3.860;2023-02-15T02:00:32;38.83;;;23.10;;
30605;SDS011;17371;51.328;3.860;2023-02-15T02:03:01;39.83;;;23.40;;
30605;SDS011;17371;51.328;3.860;2023-02-15T02:05:26;38.90;;;21.73;;
30605;SDS011;17371;51.328;3.860;2023-02-15T02:07:53;55.13;;;23.40;;
30605;SDS011;17371;51.328;3.860;2023-02-15T02:10:22;44.42;;;24.10;;
30605;SDS011;17371;51.328;3.860;2023-02-15T02:12:48;54.10;;;23.47;;
30605;SDS011;17371;51.328;3.860;2023-02-15T02:15:14;50.20;;;24.10;;
30605;SDS011;17371;51.328;3.860;2023-02-15T02:17:42;39.85;;;23.13;;
30605;SDS011;17371;51.328;3.860;2023-02-15T02:20:17;39.85;;;23.50;;
30605;SDS011;17371;51.328;3.860;2023-02-15T02:23:04;40.97;;;22.02;;
30605;SDS011;17371;51.328;3.860;2023-02-15T02:28:44;36.20;;;21.95;;
30605;SDS011;17371;51.328;3.860;2023-02-15T02:31:31;35.30;;;20.83;;
30605;SDS011;17371;51.328;3.860;2023-02-15T02:34:10;38.35;;;21.63;;
30605;SDS011;17371;51.328;3.860;2023-02-15T02:36:40;35.40;;;20.55;;
30605;SDS011;17371;51.328;3.860;2023-02-15T02:39:13;38.77;;;22.23;;
30605;SDS011;17371;51.328;3.860;2023-02-15T02:41:49;34.55;;;21.05;;
30605;SDS011;17371;51.328;3.860;2023-02-15T02:44:20;32.38;;;19.48;;
30605;SDS011;17371;51.328;3.860;2023-02-15T02:46:49;37.85;;;21.33;;
30605;SDS011;17371;51.328;3.860;2023-02-15T02:49:17;36.78;;;21.92;;
30605;SDS011;17371;51.328;3.860;2023-02-15T02:51:57;36.47;;;20.93;;
30605;SDS011;17371;51.328;3.860;2023-02-15T02:54:23;36.08;;;20.20;;
30605;SDS011;17371;51.328;3.860;2023-02-15T02:56:48;34.80;;;20.03;;
30605;SDS011;17371;51.328;3.860;2023-02-15T02:59:15;33.90;;;20.60;;
30605;SDS011;17371;51.328;3.860;2023-02-15T03:01:45;35.35;;;20.42;;
30605;SDS011;17371;51.328;3.860;2023-02-15T03:04:13;33.35;;;19.50;;
30605;SDS011;17371;51.328;3.860;2023-02-15T03:06:43;32.30;;;19.65;;
30605;SDS011;17371;51.328;3.860;2023-02-15T03:09:11;32.03;;;19.90;;
30605;SDS011;17371;51.328;3.860;2023-02-15T03:11:38;33.22;;;20.58;;
30605;SDS011;17371;51.328;3.860;2023-02-15T03:14:04;32.63;;;19.83;;
30605;SDS011;17371;51.328;3.860;2023-02-15T03:16:29;32.28;;;19.38;;
30605;SDS011;17371;51.328;3.860;2023-02-15T03:18:55;31.85;;;20.17;;
30605;SDS011;17371;51.328;3.860;2023-02-15T03:21:25;28.63;;;18.30;;
30605;SDS011;17371;51.328;3.860;2023-02-15T03:23:57;34.65;;;20.00;;
30605;SDS011;17371;51.328;3.860;2023-02-15T03:26:25;35.88;;;20.25;;
30605;SDS011;17371;51.328;3.860;2023-02-15T03:28:52;44.42;;;23.92;;
30605;SDS011;17371;51.328;3.860;2023-02-15T03:31:20;48.13;;;25.00;;
30605;SDS011;17371;51.328;3.860;2023-02-15T03:33:48;40.13;;;22.73;;
30605;SDS011;17371;51.328;3.860;2023-02-15T03:36:17;42.50;;;22.92;;
30605;SDS011;17371;51.328;3.860;2023-02-15T03:38:44;40.25;;;22.70;;
30605;SDS011;17371;51.328;3.860;2023-02-15T03:41:14;54.30;;;29.00;;
30605;SDS011;17371;51.328;3.860;2023-02-15T03:43:43;50.45;;;27.63;;
30605;SDS011;17371;51.328;3.860;2023-02-15T03:46:13;53.30;;;26.27;;
30605;SDS011;17371;51.328;3.860;2023-02-15T03:48:40;50.33;;;25.98;;
30605;SDS011;17371;51.328;3.860;2023-02-15T03:51:08;47.88;;;26.88;;
30605;SDS011;17371;51.328;3.860;2023-02-15T03:53:34;48.05;;;25.35;;
30605;SDS011;17371;51.328;3.860;2023-02-15T03:56:00;54.27;;;28.20;;
30605;SDS011;17371;51.328;3.860;2023-02-15T03:58:27;51.67;;;26.90;;
30605;SDS011;17371;51.328;3.860;2023-02-15T04:00:53;50.38;;;27.30;;
30605;SDS011;17371;51.328;3.860;2023-02-15T04:03:24;56.42;;;28.10;;
30605;SDS011;17371;51.328;3.860;2023-02-15T04:05:53;58.47;;;27.90;;
30605;SDS011;17371;51.328;3.860;2023-02-15T04:08:19;59.73;;;28.80;;
30605;SDS011;17371;51.328;3.860;2023-02-15T04:10:44;61.80;;;28.83;;
30605;SDS011;17371;51.328;3.860;2023-02-15T04:13:10;63.90;;;29.43;;
30605;SDS011;17371;51.328;3.860;2023-02-15T04:15:36;68.17;;;29.73;;
30605;SDS011;17371;51.328;3.860;2023-02-15T04:18:02;60.55;;;28.92;;
30605;SDS011;17371;51.328;3.860;2023-02-15T04:20:28;63.45;;;29.45;;
30605;SDS011;17371;51.328;3.860;2023-02-15T04:22:53;64.27;;;32.03;;
30605;SDS011;17371;51.328;3.860;2023-02-15T04:25:18;54.13;;;27.87;;
30605;SDS011;17371;51.328;3.860;2023-02-15T04:27:45;61.27;;;29.87;;
30605;SDS011;17371;51.328;3.860;2023-02-15T04:30:13;61.50;;;30.00;;
30605;SDS011;17371;51.328;3.860;2023-02-15T04:32:40;55.38;;;29.27;;
30605;SDS011;17371;51.328;3.860;2023-02-15T04:35:06;57.13;;;27.20;;
30605;SDS011;17371;51.328;3.860;2023-02-15T04:37:31;63.87;;;32.70;;
30605;SDS011;17371;51.328;3.860;2023-02-15T04:39:57;65.47;;;30.63;;
30605;SDS011;17371;51.328;3.860;2023-02-15T04:42:23;63.93;;;31.40;;
30605;SDS011;17371;51.328;3.860;2023-02-15T04:44:48;72.13;;;33.85;;
30605;SDS011;17371;51.328;3.860;2023-02-15T04:47:13;63.60;;;30.52;;
30605;SDS011;17371;51.328;3.860;2023-02-15T04:49:40;66.73;;;32.80;;
30605;SDS011;17371;51.328;3.860;2023-02-15T04:52:06;58.77;;;31.57;;
30605;SDS011;17371;51.328;3.860;2023-02-15T04:54:31;65.63;;;30.60;;
30605;SDS011;17371;51.328;3.860;2023-02-15T04:56:56;59.13;;;31.53;;
30605;SDS011;17371;51.328;3.860;2023-02-15T04:59:22;59.43;;;30.33;;
30605;SDS011;17371;51.328;3.860;2023-02-15T05:01:47;58.43;;;28.97;;
30605;SDS011;17371;51.328;3.860;2023-02-15T05:04:12;68.67;;;33.50;;
30605;SDS011;17371;51.328;3.860;2023-02-15T05:06:39;62.63;;;30.10;;
30605;SDS011;17371;51.328;3.860;2023-02-15T05:09:04;64.03;;;31.50;;
30605;SDS011;17371;51.328;3.860;2023-02-15T05:11:30;69.23;;;32.00;;
30605;SDS011;17371;51.328;3.860;2023-02-15T05:13:55;71.17;;;31.97;;
30605;SDS011;17371;51.328;3.860;2023-02-15T05:16:21;63.37;;;31.23;;
30605;SDS011;17371;51.328;3.860;2023-02-15T05:18:46;66.30;;;30.65;;
30605;SDS011;17371;51.328;3.860;2023-02-15T05:21:11;64.63;;;29.67;;
30605;SDS011;17371;51.328;3.860;2023-02-15T05:23:38;80.03;;;31.93;;
30605;SDS011;17371;51.328;3.860;2023-02-15T05:26:04;77.68;;;33.05;;
30605;SDS011;17371;51.328;3.860;2023-02-15T05:28:29;88.90;;;35.53;;
30605;SDS011;17371;51.328;3.860;2023-02-15T05:30:59;91.20;;;37.07;;
30605;SDS011;17371;51.328;3.860;2023-02-15T05:33:27;94.22;;;38.15;;
30605;SDS011;17371;51.328;3.860;2023-02-15T05:35:52;97.67;;;40.30;;
30605;SDS011;17371;51.328;3.860;2023-02-15T05:38:18;111.07;;;41.67;;
30605;SDS011;17371;51.328;3.860;2023-02-15T05:40:45;98.33;;;38.27;;
30605;SDS011;17371;51.328;3.860;2023-02-15T05:43:10;98.45;;;40.88;;
30605;SDS011;17371;51.328;3.860;2023-02-15T05:45:35;99.43;;;39.23;;
30605;SDS011;17371;51.328;3.860;2023-02-15T05:48:01;91.23;;;39.10;;
30605;SDS011;17371;51.328;3.860;2023-02-15T05:50:26;105.72;;;39.85;;
30605;SDS011;17371;51.328;3.860;2023-02-15T05:52:52;106.10;;;42.42;;
30605;SDS011;17371;51.328;3.860;2023-02-15T05:55:17;98.20;;;40.47;;
30605;SDS011;17371;51.328;3.860;2023-02-15T05:57:44;99.15;;;38.83;;
30605;SDS011;17371;51.328;3.860;2023-02-15T06:00:10;92.47;;;40.53;;
30605;SDS011;17371;51.328;3.860;2023-02-15T06:02:37;106.72;;;40.03;;
30605;SDS011;17371;51.328;3.860;2023-02-15T06:05:02;112.45;;;41.78;;
30605;SDS011;17371;51.328;3.860;2023-02-15T06:07:28;103.30;;;40.08;;
30605;SDS011;17371;51.328;3.860;2023-02-15T06:09:53;114.37;;;40.20;;
30605;SDS011;17371;51.328;3.860;2023-02-15T06:12:18;115.03;;;40.50;;
30605;SDS011;17371;51.328;3.860;2023-02-15T06:14:45;112.17;;;42.10;;
30605;SDS011;17371;51.328;3.860;2023-02-15T06:17:11;117.45;;;42.72;;
30605;SDS011;17371;51.328;3.860;2023-02-15T06:19:36;118.60;;;42.63;;
30605;SDS011;17371;51.328;3.860;2023-02-15T06:22:01;117.33;;;43.20;;
30605;SDS011;17371;51.328;3.860;2023-02-15T06:24:27;104.03;;;36.95;;
30605;SDS011;17371;51.328;3.860;2023-02-15T06:26:52;113.50;;;38.23;;
30605;SDS011;17371;51.328;3.860;2023-02-15T06:29:17;111.73;;;40.50;;
30605;SDS011;17371;51.328;3.860;2023-02-15T06:31:44;104.80;;;38.17;;
30605;SDS011;17371;51.328;3.860;2023-02-15T06:34:10;113.28;;;41.38;;
30605;SDS011;17371;51.328;3.860;2023-02-15T06:36:35;110.03;;;41.27;;
30605;SDS011;17371;51.328;3.860;2023-02-15T06:39:00;117.80;;;42.23;;
30605;SDS011;17371;51.328;3.860;2023-02-15T06:41:26;119.23;;;40.37;;
30605;SDS011;17371;51.328;3.860;2023-02-15T06:43:51;115.27;;;41.07;;
30605;SDS011;17371;51.328;3.860;2023-02-15T06:46:16;105.73;;;41.53;;
30605;SDS011;17371;51.328;3.860;2023-02-15T06:48:43;116.97;;;40.27;;
30605;SDS011;17371;51.328;3.860;2023-02-15T06:51:09;117.50;;;42.47;;
30605;SDS011;17371;51.328;3.860;2023-02-15T06:53:34;123.37;;;41.13;;
30605;SDS011;17371;51.328;3.860;2023-02-15T06:56:00;114.82;;;41.88;;
30605;SDS011;17371;51.328;3.860;2023-02-15T06:58:25;119.15;;;40.95;;
30605;SDS011;17371;51.328;3.860;2023-02-15T07:00:51;117.30;;;40.93;;
30605;SDS011;17371;51.328;3.860;2023-02-15T07:03:16;123.88;;;42.50;;
30605;SDS011;17371;51.328;3.860;2023-02-15T07:05:43;117.90;;;44.80;;
30605;SDS011;17371;51.328;3.860;2023-02-15T07:08:08;134.05;;;41.92;;
30605;SDS011;17371;51.328;3.860;2023-02-15T07:10:34;125.57;;;42.60;;
30605;SDS011;17371;51.328;3.860;2023-02-15T07:12:59;109.23;;;40.43;;
30605;SDS011;17371;51.328;3.860;2023-02-15T07:15:25;126.03;;;43.47;;
30605;SDS011;17371;51.328;3.860;2023-02-15T07:17:50;128.57;;;41.57;;
30605;SDS011;17371;51.328;3.860;2023-02-15T07:20:17;127.78;;;41.97;;
30605;SDS011;17371;51.328;3.860;2023-02-15T07:22:45;125.73;;;42.67;;
30605;SDS011;17371;51.328;3.860;2023-02-15T07:25:11;135.50;;;42.40;;
30605;SDS011;17371;51.328;3.860;2023-02-15T07:27:37;127.53;;;44.25;;
30605;SDS011;17371;51.328;3.860;2023-02-15T07:30:03;132.30;;;44.58;;
30605;SDS011;17371;51.328;3.860;2023-02-15T07:32:29;139.55;;;46.22;;
30605;SDS011;17371;51.328;3.860;2023-02-15T07:34:55;129.93;;;44.58;;
30605;SDS011;17371;51.328;3.860;2023-02-15T07:37:20;115.43;;;44.47;;
30605;SDS011;17371;51.328;3.860;2023-02-15T07:39:47;136.37;;;44.67;;
30605;SDS011;17371;51.328;3.860;2023-02-15T07:42:12;128.80;;;43.80;;
30605;SDS011;17371;51.328;3.860;2023-02-15T07:44:38;120.37;;;40.47;;
30605;SDS011;17371;51.328;3.860;2023-02-15T07:47:03;135.37;;;43.83;;
30605;SDS011;17371;51.328;3.860;2023-02-15T07:49:28;134.73;;;45.13;;
30605;SDS011;17371;51.328;3.860;2023-02-15T07:51:54;132.70;;;41.60;;
30605;SDS011;17371;51.328;3.860;2023-02-15T07:54:19;121.87;;;42.83;;
30605;SDS011;17371;51.328;3.860;2023-02-15T07:56:46;148.30;;;45.47;;
30605;SDS011;17371;51.328;3.860;2023-02-15T07:59:11;151.88;;;47.97;;
30605;SDS011;17371;51.328;3.860;2023-02-15T08:01:37;141.27;;;45.60;;
30605;SDS011;17371;51.328;3.860;2023-02-15T08:04:04;153.07;;;46.88;;
30605;SDS011;17371;51.328;3.860;2023-02-15T08:06:31;164.40;;;48.55;;
30605;SDS011;17371;51.328;3.860;2023-02-15T08:08:57;155.18;;;48.55;;
30605;SDS011;17371;51.328;3.860;2023-02-15T08:11:23;165.67;;;50.10;;
30605;SDS011;17371;51.328;3.860;2023-02-15T08:13:51;171.30;;;49.88;;
30605;SDS011;17371;51.328;3.860;2023-02-15T08:16:18;150.95;;;46.05;;
30605;SDS011;17371;51.328;3.860;2023-02-15T08:18:43;145.37;;;45.53;;
30605;SDS011;17371;51.328;3.860;2023-02-15T08:21:08;182.43;;;51.23;;
30605;SDS011;17371;51.328;3.860;2023-02-15T08:23:34;177.63;;;49.27;;
30605;SDS011;17371;51.328;3.860;2023-02-15T08:25:59;173.83;;;49.20;;
30605;SDS011;17371;51.328;3.860;2023-02-15T08:28:24;166.53;;;47.80;;
30605;SDS011;17371;51.328;3.860;2023-02-15T08:30:51;167.20;;;51.83;;
30605;SDS011;17371;51.328;3.860;2023-02-15T08:33:17;172.60;;;49.85;;
30605;SDS011;17371;51.328;3.860;2023-02-15T08:35:42;173.07;;;50.67;;
30605;SDS011;17371;51.328;3.860;2023-02-15T08:38:07;182.17;;;53.90;;
30605;SDS011;17371;51.328;3.860;2023-02-15T08:40:33;190.18;;;50.13;;
30605;SDS011;17371;51.328;3.860;2023-02-15T08:42:58;187.97;;;53.93;;
30605;SDS011;17371;51.328;3.860;2023-02-15T08:45:24;164.33;;;49.87;;
30605;SDS011;17371;51.328;3.860;2023-02-15T08:47:50;161.43;;;48.70;;
30605;SDS011;17371;51.328;3.860;2023-02-15T08:50:16;165.70;;;50.60;;
30605;SDS011;17371;51.328;3.860;2023-02-15T08:52:41;147.43;;;45.43;;
30605;SDS011;17371;51.328;3.860;2023-02-15T08:55:07;151.20;;;49.43;;
30605;SDS011;17371;51.328;3.860;2023-02-15T08:57:32;138.85;;;45.78;;
30605;SDS011;17371;51.328;3.860;2023-02-15T08:59:57;139.53;;;47.70;;
30605;SDS011;17371;51.328;3.860;2023-02-15T09:02:23;140.30;;;47.97;;
30605;SDS011;17371;51.328;3.860;2023-02-15T09:04:49;141.60;;;50.30;;
30605;SDS011;17371;51.328;3.860;2023-02-15T09:07:15;137.10;;;51.40;;
30605;SDS011;17371;51.328;3.860;2023-02-15T09:09:40;125.67;;;46.67;;
30605;SDS011;17371;51.328;3.860;2023-02-15T09:12:06;126.70;;;45.73;;
30605;SDS011;17371;51.328;3.860;2023-02-15T09:14:31;143.77;;;50.65;;
30605;SDS011;17371;51.328;3.860;2023-02-15T09:16:57;146.02;;;48.92;;
30605;SDS011;17371;51.328;3.860;2023-02-15T09:19:23;142.47;;;51.47;;
30605;SDS011;17371;51.328;3.860;2023-02-15T09:21:50;149.68;;;51.17;;
30605;SDS011;17371;51.328;3.860;2023-02-15T09:24:15;151.02;;;53.47;;
30605;SDS011;17371;51.328;3.860;2023-02-15T09:26:43;146.77;;;50.90;;
30605;SDS011;17371;51.328;3.860;2023-02-15T09:29:10;226.30;;;70.03;;
30605;SDS011;17371;51.328;3.860;2023-02-15T09:31:37;201.63;;;64.28;;
30605;SDS011;17371;51.328;3.860;2023-02-15T09:34:03;181.27;;;62.58;;
30605;SDS011;17371;51.328;3.860;2023-02-15T09:36:29;198.27;;;62.90;;
30605;SDS011;17371;51.328;3.860;2023-02-15T09:38:58;200.50;;;62.78;;
30605;SDS011;17371;51.328;3.860;2023-02-15T09:41:29;200.00;;;64.25;;
30605;SDS011;17371;51.328;3.860;2023-02-15T09:44:17;223.57;;;72.05;;
30605;SDS011;17371;51.328;3.860;2023-02-15T09:46:52;213.33;;;69.57;;
30605;SDS011;17371;51.328;3.860;2023-02-15T09:49:25;197.23;;;63.63;;
30605;SDS011;17371;51.328;3.860;2023-02-15T09:54:49;171.35;;;55.45;;
30605;SDS011;17371;51.328;3.860;2023-02-15T09:57:26;174.85;;;60.05;;
30605;SDS011;17371;51.328;3.860;2023-02-15T09:59:58;213.43;;;68.60;;
30605;SDS011;17371;51.328;3.860;2023-02-15T10:02:32;228.40;;;69.88;;
30605;SDS011;17371;51.328;3.860;2023-02-15T10:05:09;189.88;;;59.15;;
30605;SDS011;17371;51.328;3.860;2023-02-15T10:07:44;232.80;;;76.03;;
30605;SDS011;17371;51.328;3.860;2023-02-15T10:10:21;205.15;;;68.60;;
30605;SDS011;17371;51.328;3.860;2023-02-15T10:12:55;207.83;;;68.37;;
30605;SDS011;17371;51.328;3.860;2023-02-15T10:15:23;194.40;;;64.60;;
30605;SDS011;17371;51.328;3.860;2023-02-15T10:21:02;194.73;;;64.32;;
30605;SDS011;17371;51.328;3.860;2023-02-15T10:23:38;196.02;;;66.75;;
30605;SDS011;17371;51.328;3.860;2023-02-15T10:26:15;214.57;;;69.87;;
30605;SDS011;17371;51.328;3.860;2023-02-15T10:28:42;193.93;;;66.82;;
30605;SDS011;17371;51.328;3.860;2023-02-15T10:31:12;189.43;;;65.90;;
30605;SDS011;17371;51.328;3.860;2023-02-15T10:33:46;166.75;;;63.10;;
30605;SDS011;17371;51.328;3.860;2023-02-15T10:36:18;174.45;;;64.85;;
30605;SDS011;17371;51.328;3.860;2023-02-15T10:38:53;161.70;;;59.93;;
30605;SDS011;17371;51.328;3.860;2023-02-15T10:41:28;150.02;;;59.80;;
30605;SDS011;17371;51.328;3.860;2023-02-15T10:44:02;171.90;;;63.63;;
30605;SDS011;17371;51.328;3.860;2023-02-15T10:46:36;123.93;;;50.88;;
30605;SDS011;17371;51.328;3.860;2023-02-15T10:52:29;114.50;;;48.87;;
30605;SDS011;17371;51.328;3.860;2023-02-15T10:55:02;91.50;;;38.83;;
30605;SDS011;17371;51.328;3.860;2023-02-15T10:57:34;81.20;;;38.97;;
30605;SDS011;17371;51.328;3.860;2023-02-15T11:00:05;91.85;;;42.90;;
30605;SDS011;17371;51.328;3.860;2023-02-15T11:02:37;84.60;;;40.55;;
30605;SDS011;17371;51.328;3.860;2023-02-15T11:05:20;76.80;;;37.10;;
30605;SDS011;17371;51.328;3.860;2023-02-15T11:07:50;72.97;;;35.05;;
30605;SDS011;17371;51.328;3.860;2023-02-15T11:10:22;71.25;;;32.78;;
30605;SDS011;17371;51.328;3.860;2023-02-15T11:12:53;67.63;;;31.90;;
30605;SDS011;17371;51.328;3.860;2023-02-15T11:15:21;71.95;;;34.65;;
30605;SDS011;17371;51.328;3.860;2023-02-15T11:17:51;64.93;;;31.00;;
30605;SDS011;17371;51.328;3.860;2023-02-15T11:20:23;64.85;;;31.67;;
30605;SDS011;17371;51.328;3.860;2023-02-15T11:22:50;61.30;;;30.95;;
30605;SDS011;17371;51.328;3.860;2023-02-15T11:25:17;61.10;;;30.25;;
30605;SDS011;17371;51.328;3.860;2023-02-15T11:27:44;58.40;;;28.87;;
30605;SDS011;17371;51.328;3.860;2023-02-15T11:30:15;61.35;;;29.13;;
30605;SDS011;17371;51.328;3.860;2023-02-15T11:32:44;65.20;;;26.92;;
30605;SDS011;17371;51.328;3.860;2023-02-15T11:35:18;56.58;;;28.27;;
30605;SDS011;17371;51.328;3.860;2023-02-15T11:37:46;60.05;;;29.02;;
30605;SDS011;17371;51.328;3.860;2023-02-15T11:40:19;63.33;;;28.67;;
30605;SDS011;17371;51.328;3.860;2023-02-15T11:42:46;59.83;;;28.70;;
30605;SDS011;17371;51.328;3.860;2023-02-15T11:45:18;63.35;;;30.88;;
30605;SDS011;17371;51.328;3.860;2023-02-15T11:47:46;61.85;;;28.10;;
30605;SDS011;17371;51.328;3.860;2023-02-15T11:50:12;51.13;;;26.93;;
30605;SDS011;17371;51.328;3.860;2023-02-15T11:52:39;60.60;;;28.73;;
30605;SDS011;17371;51.328;3.860;2023-02-15T11:55:09;61.33;;;28.83;;
30605;SDS011;17371;51.328;3.860;2023-02-15T11:57:37;58.70;;;27.77;;
30605;SDS011;17371;51.328;3.860;2023-02-15T12:00:06;57.58;;;28.20;;
30605;SDS011;17371;51.328;3.860;2023-02-15T12:02:37;57.43;;;27.87;;
30605;SDS011;17371;51.328;3.860;2023-02-15T12:05:05;53.60;;;26.33;;
30605;SDS011;17371;51.328;3.860;2023-02-15T12:07:35;58.40;;;26.75;;
30605;SDS011;17371;51.328;3.860;2023-02-15T12:10:02;54.05;;;27.50;;
30605;SDS011;17371;51.328;3.860;2023-02-15T12:12:30;55.85;;;28.05;;
30605;SDS011;17371;51.328;3.860;2023-02-15T12:14:56;60.27;;;28.20;;
30605;SDS011;17371;51.328;3.860;2023-02-15T12:17:23;55.85;;;27.40;;
30605;SDS011;17371;51.328;3.860;2023-02-15T12:19:51;59.53;;;28.73;;
30605;SDS011;17371;51.328;3.860;2023-02-15T12:22:19;57.95;;;27.70;;
30605;SDS011;17371;51.328;3.860;2023-02-15T12:24:47;51.92;;;27.08;;
30605;SDS011;17371;51.328;3.860;2023-02-15T12:27:14;52.30;;;26.40;;
30605;SDS011;17371;51.328;3.860;2023-02-15T12:29:42;55.40;;;27.20;;
30605;SDS011;17371;51.328;3.860;2023-02-15T12:32:09;58.00;;;27.10;;
30605;SDS011;17371;51.328;3.860;2023-02-15T12:34:36;57.40;;;26.77;;
30605;SDS011;17371;51.328;3.860;2023-02-15T12:37:07;55.28;;;26.23;;
30605;SDS011;17371;51.328;3.860;2023-02-15T12:39:34;51.60;;;25.50;;
30605;SDS011;17371;51.328;3.860;2023-02-15T12:42:01;54.10;;;26.08;;
30605;SDS011;17371;51.328;3.860;2023-02-15T12:44:29;52.23;;;26.57;;
30605;SDS011;17371;51.328;3.860;2023-02-15T12:46:57;53.80;;;26.30;;
30605;SDS011;17371;51.328;3.860;2023-02-15T12:49:24;48.42;;;24.52;;
30605;SDS011;17371;51.328;3.860;2023-02-15T12:51:50;48.85;;;24.67;;
30605;SDS011;17371;51.328;3.860;2023-02-15T12:54:35;50.30;;;25.65;;
30605;SDS011;17371;51.328;3.860;2023-02-15T12:57:14;54.33;;;26.00;;
30605;SDS011;17371;51.328;3.860;2023-02-15T12:59:50;48.45;;;23.25;;
30605;SDS011;17371;51.328;3.860;2023-02-15T13:02:18;46.15;;;23.35;;
30605;SDS011;17371;51.328;3.860;2023-02-15T13:04:47;50.13;;;25.08;;
30605;SDS011;17371;51.328;3.860;2023-02-15T13:07:12;54.67;;;25.35;;
30605;SDS011;17371;51.328;3.860;2023-02-15T13:09:39;50.80;;;24.92;;
30605;SDS011;17371;51.328;3.860;2023-02-15T13:12:09;46.13;;;25.17;;
30605;SDS011;17371;51.328;3.860;2023-02-15T13:14:36;48.17;;;25.17;;
30605;SDS011;17371;51.328;3.860;2023-02-15T13:17:02;51.58;;;25.17;;
30605;SDS011;17371;51.328;3.860;2023-02-15T13:19:29;49.47;;;25.37;;
30605;SDS011;17371;51.328;3.860;2023-02-15T13:21:56;50.58;;;24.65;;
30605;SDS011;17371;51.328;3.860;2023-02-15T13:24:22;55.40;;;26.75;;
30605;SDS011;17371;51.328;3.860;2023-02-15T13:26:51;49.33;;;24.63;;
30605;SDS011;17371;51.328;3.860;2023-02-15T13:29:18;49.60;;;26.00;;
30605;SDS011;17371;51.328;3.860;2023-02-15T13:31:48;48.78;;;25.13;;
30605;SDS011;17371;51.328;3.860;2023-02-15T13:34:15;44.63;;;23.60;;
30605;SDS011;17371;51.328;3.860;2023-02-15T13:36:44;45.20;;;23.98;;
30605;SDS011;17371;51.328;3.860;2023-02-15T13:39:15;47.23;;;24.50;;
30605;SDS011;17371;51.328;3.860;2023-02-15T13:41:49;49.95;;;23.77;;
30605;SDS011;17371;51.328;3.860;2023-02-15T13:44:23;49.70;;;25.30;;
30605;SDS011;17371;51.328;3.860;2023-02-15T13:46:58;44.03;;;24.13;;
30605;SDS011;17371;51.328;3.860;2023-02-15T13:49:33;47.38;;;25.42;;
30605;SDS011;17371;51.328;3.860;2023-02-15T13:52:13;46.90;;;24.70;;
30605;SDS011;17371;51.328;3.860;2023-02-15T13:54:46;51.33;;;25.42;;
30605;SDS011;17371;51.328;3.860;2023-02-15T13:57:53;45.22;;;24.67;;
30605;SDS011;17371;51.328;3.860;2023-02-15T14:00:28;46.50;;;25.08;;
30605;SDS011;17371;51.328;3.860;2023-02-15T14:03:12;46.30;;;23.75;;
30605;SDS011;17371;51.328;3.860;2023-02-15T14:05:52;50.33;;;24.73;;
30605;SDS011;17371;51.328;3.860;2023-02-15T14:08:29;47.42;;;25.75;;
30605;SDS011;17371;51.328;3.860;2023-02-15T14:11:04;48.60;;;26.80;;
30605;SDS011;17371;51.328;3.860;2023-02-15T14:13:38;43.92;;;22.88;;
30605;SDS011;17371;51.328;3.860;2023-02-15T14:16:23;43.95;;;25.02;;
30605;SDS011;17371;51.328;3.860;2023-02-15T14:18:55;50.10;;;24.33;;
30605;SDS011;17371;51.328;3.860;2023-02-15T14:21:26;47.53;;;26.38;;
30605;SDS011;17371;51.328;3.860;2023-02-15T14:23:59;49.05;;;25.95;;
30605;SDS011;17371;51.328;3.860;2023-02-15T14:26:34;49.05;;;25.15;;
30605;SDS011;17371;51.328;3.860;2023-02-15T14:29:07;48.05;;;25.98;;
30605;SDS011;17371;51.328;3.860;2023-02-15T14:31:41;47.77;;;26.30;;
30605;SDS011;17371;51.328;3.860;2023-02-15T14:34:11;47.22;;;25.45;;